createdAt,value
2022-08-22T00:02:30.834Z,100261.52
2022-08-22T00:06:01.635Z,100259.76
2022-08-22T00:09:35.902Z,100256.89
2022-08-22T00:12:49.362Z,100258.69
2022-08-22T00:16:15.076Z,100265.84
2022-08-22T00:20:08.025Z,100259.91
2022-08-22T00:23:37.568Z,100263.17
2022-08-22T00:27:11.164Z,100260.07
2022-08-22T00:30:27.750Z,100265.05
2022-08-22T00:33:33.618Z,100265.58
2022-08-22T00:37:09.287Z,100261.36
2022-08-22T00:40:37.145Z,100264.14
2022-08-22T00:44:05.062Z,100266.36
2022-08-22T00:47:30.649Z,100269.14
2022-08-22T00:51:08.021Z,100272.16
2022-08-22T00:54:37.038Z,100274.65
2022-08-22T00:58:08.303Z,100274.86
2022-08-22T01:01:22.589Z,100274.00
2022-08-22T01:04:45.588Z,100267.37
2022-08-22T01:08:05.396Z,100264.80
2022-08-22T01:11:43.273Z,100268.15
2022-08-22T01:15:11.356Z,100268.68
2022-08-22T01:18:44.494Z,100270.61
2022-08-22T01:22:26.471Z,100270.31
2022-08-22T01:26:11.921Z,100276.65
2022-08-22T01:29:29.682Z,100283.30
2022-08-22T01:33:12.813Z,100281.30
2022-08-22T01:36:32.497Z,100271.68
2022-08-22T01:40:27.192Z,100267.70
2022-08-22T01:44:12.387Z,100265.45
2022-08-22T01:47:37.560Z,100271.39
2022-08-22T01:50:59.564Z,100270.95
2022-08-22T01:54:17.056Z,100271.41
2022-08-22T01:57:23.532Z,100280.25
2022-08-22T02:00:34.907Z,100275.97
2022-08-22T02:03:48.125Z,100276.39
2022-08-22T02:07:32.073Z,100275.98
2022-08-22T02:11:02.533Z,100281.11
2022-08-22T02:14:13.898Z,100284.34
2022-08-22T02:17:33.881Z,100272.48
2022-08-22T02:21:01.555Z,100276.70
2022-08-22T02:24:14.574Z,100279.55
2022-08-22T02:27:33.955Z,100281.52
2022-08-22T02:31:18.526Z,100283.23
2022-08-22T02:35:01.585Z,100287.45
2022-08-22T02:38:23.883Z,100289.99
2022-08-22T02:41:43.436Z,100292.48
2022-08-22T02:44:56.239Z,100294.70
2022-08-22T02:48:29.605Z,100289.38
2022-08-22T02:51:53.386Z,100297.15
2022-08-22T02:55:32.204Z,100291.50
2022-08-22T02:58:50.787Z,100298.09
2022-08-22T03:01:59.417Z,100299.80
2022-08-22T03:05:14.840Z,100297.55
2022-08-22T03:08:42.959Z,100300.88
2022-08-22T03:11:51.375Z,100293.38
2022-08-22T03:15:17.592Z,100291.70
2022-08-22T03:18:32.485Z,100297.55
2022-08-22T03:21:49.009Z,100305.37
2022-08-22T03:25:21.432Z,100311.83
2022-08-22T03:28:31.556Z,100309.91
2022-08-22T03:31:39.938Z,100317.77
2022-08-22T03:34:45.180Z,100319.20
2022-08-22T03:37:55.106Z,100322.89
2022-08-22T03:41:24.926Z,100325.99
2022-08-22T03:45:08.947Z,100325.75
2022-08-22T03:48:50.372Z,100325.84
2022-08-22T03:52:18.019Z,100330.38
2022-08-22T03:55:38.625Z,100328.81
2022-08-22T03:59:15.992Z,100337.21
2022-08-22T04:02:44.420Z,100336.19
2022-08-22T04:06:22.619Z,100334.02
2022-08-22T04:09:47.563Z,100339.91
2022-08-22T04:13:24.838Z,100340.06
2022-08-22T04:17:04.135Z,100336.55
2022-08-22T04:20:35.610Z,100348.41
2022-08-22T04:24:24.304Z,100344.09
2022-08-22T04:27:43.753Z,100351.46
2022-08-22T04:30:56.122Z,100345.77
2022-08-22T04:34:17.599Z,100350.34
2022-08-22T04:37:37.641Z,100347.12
2022-08-22T04:40:50.266Z,100352.56
2022-08-22T04:44:10.827Z,100354.59
2022-08-22T04:47:54.085Z,100356.39
2022-08-22T04:51:24.874Z,100364.00
2022-08-22T04:55:14.576Z,100359.67
2022-08-22T04:58:54.444Z,100363.71
2022-08-22T05:02:11.203Z,100369.17
2022-08-22T05:05:29.493Z,100368.67
2022-08-22T05:08:41.492Z,100369.02
2022-08-22T05:11:51.243Z,100371.05
2022-08-22T05:15:12.677Z,100364.98
2022-08-22T05:18:25.609Z,100373.73
2022-08-22T05:21:41.310Z,100365.75
2022-08-22T05:24:56.163Z,100365.31
2022-08-22T05:28:10.103Z,100364.01
2022-08-22T05:31:23.269Z,100358.53
2022-08-22T05:34:40.621Z,100365.02
2022-08-22T05:38:07.415Z,100371.84
2022-08-22T05:41:27.763Z,100372.13
2022-08-22T05:44:41.467Z,100370.56
2022-08-22T05:48:06.345Z,100364.82
2022-08-22T05:51:18.118Z,100364.09
2022-08-22T05:54:34.598Z,100372.01
2022-08-22T05:57:50.289Z,100381.35
2022-08-22T06:01:05.704Z,100383.66
2022-08-22T06:04:28.614Z,100377.05
2022-08-22T06:07:42.527Z,100376.51
2022-08-22T06:11:00.448Z,100379.92
2022-08-22T06:14:24.884Z,100379.41
2022-08-22T06:17:39.320Z,100384.56
2022-08-22T06:21:11.652Z,100376.59
2022-08-22T06:24:29.802Z,100379.49
2022-08-22T06:27:40.778Z,100372.59
2022-08-22T06:30:46.968Z,100377.73
2022-08-22T06:33:53.908Z,100371.99
2022-08-22T06:37:04.189Z,100371.23
2022-08-22T06:40:10.930Z,100373.63
2022-08-22T06:43:17.766Z,100367.05
2022-08-22T06:46:26.001Z,100383.93
2022-08-22T06:49:31.626Z,100381.79
2022-08-22T06:52:40.729Z,100380.45
2022-08-22T06:55:51.971Z,100382.73
2022-08-22T06:59:01.712Z,100382.53
2022-08-22T07:02:41.830Z,100381.83
2022-08-22T07:05:56.168Z,100390.56
2022-08-22T07:09:14.433Z,100387.56
2022-08-22T07:12:34.369Z,100387.34
2022-08-22T07:15:51.047Z,100377.02
2022-08-22T07:19:07.104Z,100375.67
2022-08-22T07:22:14.324Z,100386.06
2022-08-22T07:25:34.236Z,100385.26
2022-08-22T07:29:17.005Z,100387.84
2022-08-22T07:36:02.289Z,100381.27
2022-08-22T07:39:18.754Z,100388.53
2022-08-22T07:42:34.386Z,100388.23
2022-08-22T07:46:10.227Z,100382.09
2022-08-22T07:49:49.881Z,100367.05
2022-08-22T07:52:58.899Z,100373.01
2022-08-22T07:56:14.674Z,100373.91
2022-08-22T07:59:26.430Z,100389.05
2022-08-22T08:02:36.452Z,100379.56
2022-08-22T08:05:50.997Z,100375.98
2022-08-22T08:09:04.675Z,100374.34
2022-08-22T08:12:12.570Z,100376.33
2022-08-22T08:15:25.648Z,100367.92
2022-08-22T08:18:36.894Z,100369.36
2022-08-22T08:21:51.660Z,100364.34
2022-08-22T08:25:10.212Z,100373.64
2022-08-22T08:28:40.449Z,100384.09
2022-08-22T08:31:52.766Z,100378.52
2022-08-22T08:34:59.992Z,100378.00
2022-08-22T08:38:17.082Z,100378.84
2022-08-22T08:42:02.474Z,100377.78
2022-08-22T08:45:43.153Z,100373.84
2022-08-22T08:49:01.627Z,100367.15
2022-08-22T08:52:38.491Z,100369.42
2022-08-22T08:56:19.791Z,100377.86
2022-08-22T08:59:47.806Z,100371.14
2022-08-22T09:03:30.546Z,100370.62
2022-08-22T09:07:08.883Z,100374.02
2022-08-22T09:10:46.889Z,100370.39
2022-08-22T09:14:17.219Z,100376.58
2022-08-22T09:17:49.005Z,100369.86
2022-08-22T09:21:31.301Z,100372.40
2022-08-22T09:28:42.457Z,100360.86
2022-08-22T09:32:00.440Z,100371.88
2022-08-22T09:35:45.919Z,100363.45
2022-08-22T09:39:17.508Z,100373.28
2022-08-22T09:40:16.714Z,100372.41
2022-08-22T09:42:50.991Z,100377.19
2022-08-22T09:46:07.000Z,100373.56
2022-08-22T09:49:35.295Z,100368.47
2022-08-22T09:53:11.597Z,100365.89
2022-08-22T09:56:30.769Z,100375.19
2022-08-22T10:00:05.239Z,100385.51
2022-08-22T10:03:30.956Z,100377.02
2022-08-22T10:06:45.633Z,100372.20
2022-08-22T10:10:21.321Z,100374.16
2022-08-22T10:13:34.775Z,100375.78
2022-08-22T10:17:15.550Z,100373.28
2022-08-22T10:20:37.871Z,100363.39
2022-08-22T10:24:02.508Z,100364.48
2022-08-22T10:27:12.792Z,100369.52
2022-08-22T10:30:28.724Z,100371.42
2022-08-22T10:33:50.334Z,100371.63
2022-08-22T10:37:01.272Z,100376.70
2022-08-22T10:40:28.817Z,100374.64
2022-08-22T10:43:56.594Z,100367.83
2022-08-22T10:47:11.025Z,100373.09
2022-08-22T10:50:33.449Z,100369.09
2022-08-22T10:53:53.454Z,100382.14
2022-08-22T10:57:12.123Z,100392.64
2022-08-22T11:00:57.220Z,100392.45
2022-08-22T11:04:16.773Z,100386.11
2022-08-22T11:08:13.228Z,100399.92
2022-08-22T11:11:32.862Z,100396.41
2022-08-22T11:15:03.867Z,100397.89
2022-08-22T11:18:57.956Z,100393.39
2022-08-22T11:22:13.755Z,100393.39
2022-08-22T11:25:52.622Z,100396.95
2022-08-22T11:29:15.267Z,100390.66
2022-08-22T11:32:40.564Z,100385.84
2022-08-22T11:36:15.345Z,100390.02
2022-08-22T11:39:47.154Z,100393.94
2022-08-22T11:43:18.313Z,100382.20
2022-08-22T11:46:45.800Z,100381.60
2022-08-22T11:50:13.837Z,100371.20
2022-08-22T11:53:29.772Z,100371.20
2022-08-22T11:56:49.570Z,100371.72
2022-08-22T12:00:17.101Z,100379.14
2022-08-22T12:03:55.730Z,100369.27
2022-08-22T12:07:27.484Z,100369.56
2022-08-22T12:10:51.685Z,100372.09
2022-08-22T12:14:22.351Z,100375.02
2022-08-22T12:18:10.659Z,100366.73
2022-08-22T12:22:03.408Z,100368.09
2022-08-22T12:25:29.369Z,100361.19
2022-08-22T12:29:15.561Z,100362.48
2022-08-22T12:32:45.774Z,100365.19
2022-08-22T12:36:44.091Z,100368.49
2022-08-22T12:40:14.061Z,100367.08
2022-08-22T12:43:44.871Z,100367.14
2022-08-22T12:47:17.559Z,100366.10
2022-08-22T12:51:17.470Z,100362.89
2022-08-22T12:54:31.474Z,100366.37
2022-08-22T12:58:20.394Z,100361.09
2022-08-22T13:01:43.182Z,100361.34
2022-08-22T13:04:51.098Z,100357.73
2022-08-22T13:08:00.253Z,100352.07
2022-08-22T13:11:22.530Z,100345.94
2022-08-22T13:14:26.987Z,100338.27
2022-08-22T13:17:36.531Z,100342.48
2022-08-22T13:20:48.471Z,100335.16
2022-08-22T13:24:00.624Z,100329.50
2022-08-22T13:27:20.365Z,100342.48
2022-08-22T13:30:55.950Z,100334.66
2022-08-22T13:34:18.298Z,100335.50
2022-08-22T13:37:42.426Z,100324.98
2022-08-22T13:40:49.970Z,100323.84
2022-08-22T13:44:23.338Z,100323.88
2022-08-22T13:47:42.601Z,100319.38
2022-08-22T13:50:53.951Z,100316.55
2022-08-22T13:54:16.051Z,100325.83
2022-08-22T13:57:41.878Z,100322.72
2022-08-22T14:01:48.276Z,100316.18
2022-08-22T14:04:59.748Z,100324.95
2022-08-22T14:08:26.824Z,100311.31
2022-08-22T14:11:37.249Z,100315.55
2022-08-22T14:14:47.581Z,100313.80
2022-08-22T14:18:00.082Z,100317.41
2022-08-22T14:21:07.884Z,100311.91
2022-08-22T14:24:45.820Z,100316.77
2022-08-22T14:28:06.466Z,100310.91
2022-08-22T14:31:27.291Z,100315.41
2022-08-22T14:34:34.380Z,100315.66
2022-08-22T14:37:53.407Z,100310.52
2022-08-22T14:41:02.022Z,100308.86
2022-08-22T14:44:22.148Z,100310.63
2022-08-22T14:48:30.468Z,100309.84
2022-08-22T14:51:33.259Z,100309.62
2022-08-22T14:54:42.697Z,100311.14
2022-08-22T14:57:53.168Z,100315.42
2022-08-22T15:01:01.687Z,100308.88
2022-08-22T15:04:21.448Z,100305.17
2022-08-22T15:07:40.663Z,100315.35
2022-08-22T15:10:48.446Z,100319.73
2022-08-22T15:13:55.958Z,100316.53
2022-08-22T15:17:13.081Z,100314.45
2022-08-22T15:20:49.627Z,100312.09
2022-08-22T15:23:58.447Z,100315.09
2022-08-22T15:27:09.730Z,100313.02
2022-08-22T15:30:21.389Z,100314.28
2022-08-22T15:33:32.170Z,100316.16
2022-08-22T15:36:40.320Z,100311.27
2022-08-22T15:39:52.713Z,100315.09
2022-08-22T15:43:04.528Z,100317.84
2022-08-22T15:46:40.803Z,100316.86
2022-08-22T15:49:51.253Z,100318.39
2022-08-22T15:53:33.749Z,100321.83
2022-08-22T15:56:45.206Z,100322.75
2022-08-22T16:00:10.615Z,100328.75
2022-08-22T16:03:26.069Z,100328.75
2022-08-22T16:06:49.179Z,100333.08
2022-08-22T16:09:59.919Z,100341.77
2022-08-22T16:13:45.972Z,100343.62
2022-08-22T16:17:10.825Z,100346.05
2022-08-22T16:20:31.836Z,100355.83
2022-08-22T16:23:37.858Z,100348.12
2022-08-22T16:26:53.662Z,100354.72
2022-08-22T16:30:00.641Z,100351.73
2022-08-22T16:33:12.246Z,100356.38
2022-08-22T16:36:57.867Z,100356.48
2022-08-22T16:40:15.290Z,100368.68
2022-08-22T16:43:29.851Z,100364.84
2022-08-22T16:46:44.502Z,100370.56
2022-08-22T16:50:06.971Z,100368.98
2022-08-22T16:53:23.988Z,100374.39
2022-08-22T16:56:49.576Z,100386.80
2022-08-22T17:00:08.950Z,100379.83
2022-08-22T17:04:10.387Z,100387.45
2022-08-22T17:08:05.024Z,100385.80
2022-08-22T17:11:50.186Z,100398.20
2022-08-22T17:15:12.784Z,100393.97
2022-08-22T17:18:55.394Z,100401.86
2022-08-22T17:22:13.559Z,100407.50
2022-08-22T17:25:42.342Z,100402.19
2022-08-22T17:29:08.111Z,100409.23
2022-08-22T17:32:59.046Z,100412.31
2022-08-22T17:36:32.453Z,100400.79
2022-08-22T17:40:07.072Z,100405.56
2022-08-22T17:43:49.655Z,100413.96
2022-08-22T17:47:09.818Z,100415.06
2022-08-22T17:50:25.988Z,100417.88
2022-08-22T17:54:09.204Z,100410.85
2022-08-22T17:57:53.717Z,100416.46
2022-08-22T18:01:11.187Z,100417.01
2022-08-22T18:04:17.071Z,100421.45
2022-08-22T18:07:51.038Z,100424.24
2022-08-22T18:11:20.181Z,100429.80
2022-08-22T18:14:57.042Z,100431.19
2022-08-22T18:18:30.147Z,100431.44
2022-08-22T18:21:51.357Z,100429.16
2022-08-22T18:25:20.556Z,100430.80
2022-08-22T18:29:01.146Z,100436.11
2022-08-22T18:32:45.310Z,100429.89
2022-08-22T18:36:09.270Z,100432.12
2022-08-22T18:39:22.970Z,100431.51
2022-08-22T18:43:04.030Z,100435.41
2022-08-22T18:46:12.056Z,100428.05
2022-08-22T18:49:39.901Z,100425.21
2022-08-22T18:52:51.827Z,100429.69
2022-08-22T18:56:12.635Z,100422.64
2022-08-22T18:59:33.098Z,100427.08
2022-08-22T19:03:21.270Z,100426.22
2022-08-22T19:07:08.443Z,100423.96
2022-08-22T19:10:34.474Z,100431.23
2022-08-22T19:14:02.034Z,100428.66
2022-08-22T19:17:26.432Z,100427.53
2022-08-22T19:21:10.155Z,100430.29
2022-08-22T19:24:19.280Z,100421.58
2022-08-22T19:27:38.284Z,100429.12
2022-08-22T19:31:08.536Z,100426.31
2022-08-22T19:34:47.649Z,100431.91
2022-08-22T19:38:04.751Z,100438.10
2022-08-22T19:41:11.525Z,100435.30
2022-08-22T19:44:18.827Z,100438.38
2022-08-22T19:47:35.741Z,100438.38
2022-08-22T19:50:48.358Z,100443.98
2022-08-22T19:54:05.248Z,100445.14
2022-08-22T19:57:25.703Z,100442.58
2022-08-22T20:00:39.758Z,100449.30
2022-08-22T20:04:11.476Z,100446.50
2022-08-22T20:07:32.191Z,100447.31
2022-08-22T20:10:58.024Z,100442.52
2022-08-22T20:14:04.478Z,100446.41
2022-08-22T20:17:42.854Z,100447.53
2022-08-22T20:20:53.870Z,100450.33
2022-08-22T20:24:01.277Z,100453.66
2022-08-22T20:27:14.530Z,100454.16
2022-08-22T20:30:29.377Z,100457.82
2022-08-22T20:33:48.423Z,100461.17
2022-08-22T20:37:23.700Z,100463.16
2022-08-22T20:40:55.519Z,100473.53
2022-08-22T20:43:45.624Z,100462.02
2022-08-22T20:47:21.222Z,100464.83
2022-08-22T20:50:27.712Z,100461.44
2022-08-22T20:53:36.785Z,100469.79
2022-08-22T20:56:53.954Z,100468.38
2022-08-22T21:00:10.216Z,100466.92
2022-08-22T21:03:46.890Z,100472.20
2022-08-22T21:06:54.787Z,100471.61
2022-08-22T21:10:30.446Z,100473.53
2022-08-22T21:13:48.381Z,100478.55
2022-08-22T21:16:55.268Z,100474.33
2022-08-22T21:20:01.528Z,100487.73
2022-08-22T21:23:13.016Z,100483.21
2022-08-22T21:26:25.344Z,100489.08
2022-08-22T21:29:37.279Z,100492.14
2022-08-22T21:32:59.488Z,100487.06
2022-08-22T21:36:13.023Z,100492.08
2022-08-22T21:39:28.899Z,100489.00
2022-08-22T21:42:53.086Z,100492.33
2022-08-22T21:46:01.292Z,100498.45
2022-08-22T21:49:20.601Z,100497.86
2022-08-22T21:52:26.421Z,100501.46
2022-08-22T21:55:46.418Z,100501.98
2022-08-22T21:58:53.404Z,100506.39
2022-08-22T22:02:03.640Z,100501.59
2022-08-22T22:05:13.430Z,100494.58
2022-08-22T22:08:21.094Z,100501.78
2022-08-22T22:11:29.228Z,100500.59
2022-08-22T22:14:35.484Z,100505.05
2022-08-22T22:17:43.800Z,100502.73
2022-08-22T22:20:49.232Z,100497.92
2022-08-22T22:23:58.630Z,100507.94
2022-08-22T22:27:04.643Z,100503.13
2022-08-22T22:30:09.681Z,100511.19
2022-08-22T22:33:15.595Z,100514.19
2022-08-22T22:36:26.556Z,100520.02
2022-08-22T22:39:33.471Z,100519.67
2022-08-22T22:42:38.943Z,100526.05
2022-08-22T22:45:46.028Z,100521.25
2022-08-22T22:48:53.118Z,100519.52
2022-08-22T22:51:59.873Z,100525.63
2022-08-22T22:55:04.212Z,100520.55
2022-08-22T22:58:11.903Z,100528.59
2022-08-22T23:01:30.263Z,100531.08
2022-08-22T23:04:35.898Z,100534.67
2022-08-22T23:07:44.735Z,100537.44
2022-08-22T23:10:51.929Z,100541.02
2022-08-22T23:13:59.314Z,100545.73
2022-08-22T23:17:06.449Z,100544.88
2022-08-22T23:20:12.589Z,100546.15
2022-08-22T23:23:19.472Z,100560.09
2022-08-22T23:26:24.989Z,100561.42
2022-08-22T23:29:34.067Z,100559.45
2022-08-22T23:32:39.679Z,100562.76
2022-08-22T23:35:45.531Z,100563.30
2022-08-22T23:38:51.407Z,100566.03
2022-08-22T23:41:57.875Z,100562.66
2022-08-22T23:45:03.917Z,100565.72
2022-08-22T23:48:09.997Z,100572.95
2022-08-22T23:51:15.232Z,100567.05
2022-08-22T23:54:22.833Z,100568.70
2022-08-22T23:57:29.457Z,100570.89
